sensor_id;sensor_type;location;lat;lon;timestamp;temperature;humidity
46091;DHT22;31826;53.572;10.170;2022-07-24T00:00:28;13.70;99.90
46091;DHT22;31826;53.572;10.170;2022-07-24T00:02:55;13.60;99.90
46091;DHT22;31826;53.572;10.170;2022-07-24T00:05:20;13.70;99.90
46091;DHT22;31826;53.572;10.170;2022-07-24T00:07:46;13.70;99.90
46091;DHT22;31826;53.572;10.170;2022-07-24T00:10:12;13.70;99.90
46091;DHT22;31826;53.572;10.170;2022-07-24T00:12:38;13.70;99.90
46091;DHT22;31826;53.572;10.170;2022-07-24T00:15:04;13.80;99.90
46091;DHT22;31826;53.572;10.170;2022-07-24T00:17:30;13.70;99.90
46091;DHT22;31826;53.572;10.170;2022-07-24T00:19:56;13.60;99.90
46091;DHT22;31826;53.572;10.170;2022-07-24T00:22:22;13.60;99.90
46091;DHT22;31826;53.572;10.170;2022-07-24T00:24:49;13.40;99.90
46091;DHT22;31826;53.572;10.170;2022-07-24T00:27:15;13.30;99.90
46091;DHT22;31826;53.572;10.170;2022-07-24T00:29:41;13.20;99.90
46091;DHT22;31826;53.572;10.170;2022-07-24T00:32:07;13.10;99.90
46091;DHT22;31826;53.572;10.170;2022-07-24T00:34:33;13.10;99.90
46091;DHT22;31826;53.572;10.170;2022-07-24T00:36:59;13.00;99.90
46091;DHT22;31826;53.572;10.170;2022-07-24T00:39:24;13.10;99.90
46091;DHT22;31826;53.572;10.170;2022-07-24T00:41:50;13.10;99.90
46091;DHT22;31826;53.572;10.170;2022-07-24T00:44:18;13.10;99.90
46091;DHT22;31826;53.572;10.170;2022-07-24T00:46:45;13.10;99.90
46091;DHT22;31826;53.572;10.170;2022-07-24T00:49:14;13.10;99.90
46091;DHT22;31826;53.572;10.170;2022-07-24T00:51:43;13.10;99.90
46091;DHT22;31826;53.572;10.170;2022-07-24T00:54:11;13.10;99.90
46091;DHT22;31826;53.572;10.170;2022-07-24T00:56:38;13.00;99.90
46091;DHT22;31826;53.572;10.170;2022-07-24T00:59:04;12.90;99.90
46091;DHT22;31826;53.572;10.170;2022-07-24T01:01:31;13.00;99.90
46091;DHT22;31826;53.572;10.170;2022-07-24T01:03:57;12.80;99.90
46091;DHT22;31826;53.572;10.170;2022-07-24T01:06:23;12.80;99.90
46091;DHT22;31826;53.572;10.170;2022-07-24T01:08:49;12.80;99.90
46091;DHT22;31826;53.572;10.170;2022-07-24T01:11:15;12.70;99.90
46091;DHT22;31826;53.572;10.170;2022-07-24T01:13:42;12.80;99.90
46091;DHT22;31826;53.572;10.170;2022-07-24T01:16:09;12.90;99.90
46091;DHT22;31826;53.572;10.170;2022-07-24T01:18:35;13.00;99.90
46091;DHT22;31826;53.572;10.170;2022-07-24T01:21:02;13.00;99.90
46091;DHT22;31826;53.572;10.170;2022-07-24T01:23:27;13.00;99.90
46091;DHT22;31826;53.572;10.170;2022-07-24T01:25:53;13.10;99.90
46091;DHT22;31826;53.572;10.170;2022-07-24T01:28:19;13.10;99.90
46091;DHT22;31826;53.572;10.170;2022-07-24T01:30:45;13.00;99.90
46091;DHT22;31826;53.572;10.170;2022-07-24T01:33:11;13.00;99.90
46091;DHT22;31826;53.572;10.170;2022-07-24T01:35:36;13.10;99.90
46091;DHT22;31826;53.572;10.170;2022-07-24T01:38:02;13.00;99.90
46091;DHT22;31826;53.572;10.170;2022-07-24T01:40:28;13.00;99.90
46091;DHT22;31826;53.572;10.170;2022-07-24T01:42:54;13.10;99.90
46091;DHT22;31826;53.572;10.170;2022-07-24T01:45:20;13.20;99.90
46091;DHT22;31826;53.572;10.170;2022-07-24T01:47:46;13.10;99.90
46091;DHT22;31826;53.572;10.170;2022-07-24T01:50:13;13.20;99.90
46091;DHT22;31826;53.572;10.170;2022-07-24T01:52:39;12.90;99.90
46091;DHT22;31826;53.572;10.170;2022-07-24T01:55:05;12.90;99.90
46091;DHT22;31826;53.572;10.170;2022-07-24T01:57:32;12.90;99.90
46091;DHT22;31826;53.572;10.170;2022-07-24T01:59:59;12.70;99.90
46091;DHT22;31826;53.572;10.170;2022-07-24T02:02:26;12.80;99.90
46091;DHT22;31826;53.572;10.170;2022-07-24T02:04:52;12.60;99.90
46091;DHT22;31826;53.572;10.170;2022-07-24T02:07:18;12.50;99.90
46091;DHT22;31826;53.572;10.170;2022-07-24T02:09:43;12.50;99.90
46091;DHT22;31826;53.572;10.170;2022-07-24T02:12:09;12.50;99.90
46091;DHT22;31826;53.572;10.170;2022-07-24T02:14:35;12.40;99.90
46091;DHT22;31826;53.572;10.170;2022-07-24T02:17:01;12.30;99.90
46091;DHT22;31826;53.572;10.170;2022-07-24T02:19:26;12.40;99.90
46091;DHT22;31826;53.572;10.170;2022-07-24T02:21:53;12.40;99.90
46091;DHT22;31826;53.572;10.170;2022-07-24T02:24:19;12.50;99.90
46091;DHT22;31826;53.572;10.170;2022-07-24T02:26:44;12.60;99.90
46091;DHT22;31826;53.572;10.170;2022-07-24T02:29:10;12.60;99.90
46091;DHT22;31826;53.572;10.170;2022-07-24T02:31:36;12.60;99.90
46091;DHT22;31826;53.572;10.170;2022-07-24T02:34:02;12.60;99.90
46091;DHT22;31826;53.572;10.170;2022-07-24T02:36:28;12.70;99.90
46091;DHT22;31826;53.572;10.170;2022-07-24T02:38:53;12.60;99.90
46091;DHT22;31826;53.572;10.170;2022-07-24T02:41:19;12.60;99.90
46091;DHT22;31826;53.572;10.170;2022-07-24T02:43:45;12.50;99.90
46091;DHT22;31826;53.572;10.170;2022-07-24T02:46:11;12.50;99.90
46091;DHT22;31826;53.572;10.170;2022-07-24T02:48:36;12.50;99.90
46091;DHT22;31826;53.572;10.170;2022-07-24T02:51:02;12.50;99.90
46091;DHT22;31826;53.572;10.170;2022-07-24T02:53:28;12.50;99.90
46091;DHT22;31826;53.572;10.170;2022-07-24T02:55:54;12.50;99.90
46091;DHT22;31826;53.572;10.170;2022-07-24T02:58:20;12.60;99.90
46091;DHT22;31826;53.572;10.170;2022-07-24T03:00:45;12.70;99.90
46091;DHT22;31826;53.572;10.170;2022-07-24T03:03:11;12.70;99.90
46091;DHT22;31826;53.572;10.170;2022-07-24T03:05:37;12.60;99.90
46091;DHT22;31826;53.572;10.170;2022-07-24T03:08:03;12.50;99.90
46091;DHT22;31826;53.572;10.170;2022-07-24T03:10:29;12.20;99.90
46091;DHT22;31826;53.572;10.170;2022-07-24T03:12:54;12.20;99.90
46091;DHT22;31826;53.572;10.170;2022-07-24T03:15:20;12.20;99.90
46091;DHT22;31826;53.572;10.170;2022-07-24T03:17:54;12.10;99.90
46091;DHT22;31826;53.572;10.170;2022-07-24T03:20:21;12.10;99.90
46091;DHT22;31826;53.572;10.170;2022-07-24T03:22:47;12.10;99.90
46091;DHT22;31826;53.572;10.170;2022-07-24T03:25:13;12.00;99.90
46091;DHT22;31826;53.572;10.170;2022-07-24T03:27:39;12.00;99.90
46091;DHT22;31826;53.572;10.170;2022-07-24T03:30:06;12.00;99.90
46091;DHT22;31826;53.572;10.170;2022-07-24T03:32:33;12.00;99.90
46091;DHT22;31826;53.572;10.170;2022-07-24T03:34:58;12.00;99.90
46091;DHT22;31826;53.572;10.170;2022-07-24T03:37:24;11.90;99.90
46091;DHT22;31826;53.572;10.170;2022-07-24T03:39:50;12.00;99.90
46091;DHT22;31826;53.572;10.170;2022-07-24T03:42:16;11.90;99.90
46091;DHT22;31826;53.572;10.170;2022-07-24T03:44:41;11.80;99.90
46091;DHT22;31826;53.572;10.170;2022-07-24T03:47:07;11.90;99.90
46091;DHT22;31826;53.572;10.170;2022-07-24T03:49:33;11.80;99.90
46091;DHT22;31826;53.572;10.170;2022-07-24T03:51:59;11.80;99.90
46091;DHT22;31826;53.572;10.170;2022-07-24T03:54:25;11.80;99.90
46091;DHT22;31826;53.572;10.170;2022-07-24T03:56:51;11.90;99.90
46091;DHT22;31826;53.572;10.170;2022-07-24T03:59:17;11.90;99.90
46091;DHT22;31826;53.572;10.170;2022-07-24T04:01:43;12.00;99.90
46091;DHT22;31826;53.572;10.170;2022-07-24T04:04:09;12.00;99.90
46091;DHT22;31826;53.572;10.170;2022-07-24T04:06:35;11.90;99.90
46091;DHT22;31826;53.572;10.170;2022-07-24T04:09:03;11.90;99.90
46091;DHT22;31826;53.572;10.170;2022-07-24T04:11:30;11.90;99.90
46091;DHT22;31826;53.572;10.170;2022-07-24T04:13:56;11.90;99.90
46091;DHT22;31826;53.572;10.170;2022-07-24T04:16:21;11.90;99.90
46091;DHT22;31826;53.572;10.170;2022-07-24T04:18:47;12.00;99.90
46091;DHT22;31826;53.572;10.170;2022-07-24T04:21:13;12.00;99.90
46091;DHT22;31826;53.572;10.170;2022-07-24T04:23:39;12.10;99.90
46091;DHT22;31826;53.572;10.170;2022-07-24T04:26:05;12.10;99.90
46091;DHT22;31826;53.572;10.170;2022-07-24T04:28:31;12.20;99.90
46091;DHT22;31826;53.572;10.170;2022-07-24T04:30:57;12.30;99.90
46091;DHT22;31826;53.572;10.170;2022-07-24T04:33:23;12.40;99.90
46091;DHT22;31826;53.572;10.170;2022-07-24T04:35:49;12.50;99.90
46091;DHT22;31826;53.572;10.170;2022-07-24T04:38:14;12.50;99.90
46091;DHT22;31826;53.572;10.170;2022-07-24T04:40:41;12.50;99.90
46091;DHT22;31826;53.572;10.170;2022-07-24T04:43:07;12.50;99.90
46091;DHT22;31826;53.572;10.170;2022-07-24T04:45:33;12.60;99.90
46091;DHT22;31826;53.572;10.170;2022-07-24T04:47:58;12.60;99.90
46091;DHT22;31826;53.572;10.170;2022-07-24T04:50:24;12.60;99.90
46091;DHT22;31826;53.572;10.170;2022-07-24T04:52:50;12.70;99.90
46091;DHT22;31826;53.572;10.170;2022-07-24T04:55:16;12.70;99.90
46091;DHT22;31826;53.572;10.170;2022-07-24T04:57:42;12.80;99.90
46091;DHT22;31826;53.572;10.170;2022-07-24T05:00:10;12.80;99.90
46091;DHT22;31826;53.572;10.170;2022-07-24T05:02:36;13.00;99.90
46091;DHT22;31826;53.572;10.170;2022-07-24T05:05:02;13.30;99.90
46091;DHT22;31826;53.572;10.170;2022-07-24T05:07:28;13.30;99.90
46091;DHT22;31826;53.572;10.170;2022-07-24T05:09:54;13.40;99.90
46091;DHT22;31826;53.572;10.170;2022-07-24T05:12:20;13.40;99.90
46091;DHT22;31826;53.572;10.170;2022-07-24T05:14:45;13.60;99.90
46091;DHT22;31826;53.572;10.170;2022-07-24T05:17:11;13.60;99.90
46091;DHT22;31826;53.572;10.170;2022-07-24T05:19:37;13.60;99.90
46091;DHT22;31826;53.572;10.170;2022-07-24T05:22:03;13.70;99.90
46091;DHT22;31826;53.572;10.170;2022-07-24T05:24:28;13.80;99.90
46091;DHT22;31826;53.572;10.170;2022-07-24T05:26:54;13.90;99.90
46091;DHT22;31826;53.572;10.170;2022-07-24T05:29:20;14.00;99.90
46091;DHT22;31826;53.572;10.170;2022-07-24T05:31:46;14.00;99.90
46091;DHT22;31826;53.572;10.170;2022-07-24T05:34:12;14.10;99.90
46091;DHT22;31826;53.572;10.170;2022-07-24T05:36:38;14.20;99.90
46091;DHT22;31826;53.572;10.170;2022-07-24T05:39:04;14.40;99.90
46091;DHT22;31826;53.572;10.170;2022-07-24T05:41:30;14.50;99.90
46091;DHT22;31826;53.572;10.170;2022-07-24T05:43:56;14.70;99.90
46091;DHT22;31826;53.572;10.170;2022-07-24T05:46:22;14.80;99.90
46091;DHT22;31826;53.572;10.170;2022-07-24T05:48:48;15.00;99.90
46091;DHT22;31826;53.572;10.170;2022-07-24T05:51:13;15.00;99.90
46091;DHT22;31826;53.572;10.170;2022-07-24T05:53:39;15.20;99.90
46091;DHT22;31826;53.572;10.170;2022-07-24T05:56:05;15.20;99.90
46091;DHT22;31826;53.572;10.170;2022-07-24T05:58:31;15.30;99.90
46091;DHT22;31826;53.572;10.170;2022-07-24T06:00:57;15.30;99.90
46091;DHT22;31826;53.572;10.170;2022-07-24T06:03:22;15.30;99.90
46091;DHT22;31826;53.572;10.170;2022-07-24T06:05:48;15.40;99.90
46091;DHT22;31826;53.572;10.170;2022-07-24T06:08:14;15.50;99.90
46091;DHT22;31826;53.572;10.170;2022-07-24T06:10:39;15.60;99.90
46091;DHT22;31826;53.572;10.170;2022-07-24T06:13:05;15.70;99.90
46091;DHT22;31826;53.572;10.170;2022-07-24T06:15:31;15.70;99.90
46091;DHT22;31826;53.572;10.170;2022-07-24T06:17:58;15.80;99.90
46091;DHT22;31826;53.572;10.170;2022-07-24T06:20:24;16.00;99.90
46091;DHT22;31826;53.572;10.170;2022-07-24T06:22:50;16.20;99.90
46091;DHT22;31826;53.572;10.170;2022-07-24T06:25:16;16.30;99.90
46091;DHT22;31826;53.572;10.170;2022-07-24T06:27:47;16.50;99.90
46091;DHT22;31826;53.572;10.170;2022-07-24T06:32:40;16.80;99.90
46091;DHT22;31826;53.572;10.170;2022-07-24T06:35:06;16.90;99.90
46091;DHT22;31826;53.572;10.170;2022-07-24T06:37:32;17.00;99.90
46091;DHT22;31826;53.572;10.170;2022-07-24T06:39:58;17.10;99.90
46091;DHT22;31826;53.572;10.170;2022-07-24T06:42:24;17.20;99.90
46091;DHT22;31826;53.572;10.170;2022-07-24T06:44:50;17.40;99.90
46091;DHT22;31826;53.572;10.170;2022-07-24T06:47:15;17.50;99.90
46091;DHT22;31826;53.572;10.170;2022-07-24T06:49:41;17.50;99.90
46091;DHT22;31826;53.572;10.170;2022-07-24T06:52:07;17.60;99.90
46091;DHT22;31826;53.572;10.170;2022-07-24T06:54:33;17.50;99.90
46091;DHT22;31826;53.572;10.170;2022-07-24T06:56:58;17.50;99.90
46091;DHT22;31826;53.572;10.170;2022-07-24T06:59:24;17.50;99.90
46091;DHT22;31826;53.572;10.170;2022-07-24T07:01:50;17.60;99.90
46091;DHT22;31826;53.572;10.170;2022-07-24T07:04:16;17.70;99.90
46091;DHT22;31826;53.572;10.170;2022-07-24T07:06:41;17.80;99.90
46091;DHT22;31826;53.572;10.170;2022-07-24T07:09:07;18.00;99.90
46091;DHT22;31826;53.572;10.170;2022-07-24T07:11:33;18.00;99.90
46091;DHT22;31826;53.572;10.170;2022-07-24T07:13:58;18.00;99.90
46091;DHT22;31826;53.572;10.170;2022-07-24T07:16:24;18.30;99.90
46091;DHT22;31826;53.572;10.170;2022-07-24T07:18:50;18.50;99.90
46091;DHT22;31826;53.572;10.170;2022-07-24T07:21:16;18.60;99.90
46091;DHT22;31826;53.572;10.170;2022-07-24T07:23:41;18.40;99.90
46091;DHT22;31826;53.572;10.170;2022-07-24T07:26:07;18.50;99.90
46091;DHT22;31826;53.572;10.170;2022-07-24T07:28:33;18.60;99.90
46091;DHT22;31826;53.572;10.170;2022-07-24T07:30:59;18.60;99.90
46091;DHT22;31826;53.572;10.170;2022-07-24T07:33:24;18.80;99.90
46091;DHT22;31826;53.572;10.170;2022-07-24T07:35:52;19.00;99.90
46091;DHT22;31826;53.572;10.170;2022-07-24T07:38:18;19.10;99.90
46091;DHT22;31826;53.572;10.170;2022-07-24T07:40:44;19.20;99.90
46091;DHT22;31826;53.572;10.170;2022-07-24T07:43:10;19.20;99.90
46091;DHT22;31826;53.572;10.170;2022-07-24T07:45:36;19.30;99.90
46091;DHT22;31826;53.572;10.170;2022-07-24T07:48:02;19.50;99.90
46091;DHT22;31826;53.572;10.170;2022-07-24T07:50:28;19.70;99.90
46091;DHT22;31826;53.572;10.170;2022-07-24T07:52:54;19.90;99.90
46091;DHT22;31826;53.572;10.170;2022-07-24T07:55:20;20.00;99.90
46091;DHT22;31826;53.572;10.170;2022-07-24T07:57:46;20.30;99.90
46091;DHT22;31826;53.572;10.170;2022-07-24T08:00:12;20.40;99.90
46091;DHT22;31826;53.572;10.170;2022-07-24T08:02:38;20.40;99.90
46091;DHT22;31826;53.572;10.170;2022-07-24T08:05:05;20.30;99.90
46091;DHT22;31826;53.572;10.170;2022-07-24T08:07:30;20.30;99.90
46091;DHT22;31826;53.572;10.170;2022-07-24T08:09:56;20.50;99.90
46091;DHT22;31826;53.572;10.170;2022-07-24T08:12:22;20.50;99.90
46091;DHT22;31826;53.572;10.170;2022-07-24T08:14:48;20.70;99.90
46091;DHT22;31826;53.572;10.170;2022-07-24T08:17:13;20.80;99.90
46091;DHT22;31826;53.572;10.170;2022-07-24T08:19:40;20.70;99.90
46091;DHT22;31826;53.572;10.170;2022-07-24T08:22:06;20.90;99.90
46091;DHT22;31826;53.572;10.170;2022-07-24T08:24:31;20.90;99.90
46091;DHT22;31826;53.572;10.170;2022-07-24T08:26:58;20.90;99.90
46091;DHT22;31826;53.572;10.170;2022-07-24T08:29:25;21.00;99.90
46091;DHT22;31826;53.572;10.170;2022-07-24T08:31:51;21.40;99.80
46091;DHT22;31826;53.572;10.170;2022-07-24T08:34:17;21.40;99.90
46091;DHT22;31826;53.572;10.170;2022-07-24T08:36:43;21.60;99.40
46091;DHT22;31826;53.572;10.170;2022-07-24T08:39:12;21.60;98.70
46091;DHT22;31826;53.572;10.170;2022-07-24T08:41:38;21.60;99.00
46091;DHT22;31826;53.572;10.170;2022-07-24T08:44:04;21.70;98.80
46091;DHT22;31826;53.572;10.170;2022-07-24T08:46:31;21.90;99.30
46091;DHT22;31826;53.572;10.170;2022-07-24T08:48:57;22.10;97.90
46091;DHT22;31826;53.572;10.170;2022-07-24T08:51:33;22.10;98.70
46091;DHT22;31826;53.572;10.170;2022-07-24T08:54:02;22.30;97.80
46091;DHT22;31826;53.572;10.170;2022-07-24T08:56:28;22.60;96.00
46091;DHT22;31826;53.572;10.170;2022-07-24T08:58:55;22.60;95.90
46091;DHT22;31826;53.572;10.170;2022-07-24T09:01:21;22.70;95.50
46091;DHT22;31826;53.572;10.170;2022-07-24T09:03:47;22.70;95.90
46091;DHT22;31826;53.572;10.170;2022-07-24T09:06:14;22.70;96.40
46091;DHT22;31826;53.572;10.170;2022-07-24T09:08:57;23.00;95.80
46091;DHT22;31826;53.572;10.170;2022-07-24T09:11:23;23.10;94.70
46091;DHT22;31826;53.572;10.170;2022-07-24T09:13:52;23.20;94.20
46091;DHT22;31826;53.572;10.170;2022-07-24T09:16:36;23.10;94.60
46091;DHT22;31826;53.572;10.170;2022-07-24T09:19:04;23.20;94.80
46091;DHT22;31826;53.572;10.170;2022-07-24T09:21:36;23.50;93.90
46091;DHT22;31826;53.572;10.170;2022-07-24T09:24:18;23.60;93.80
46091;DHT22;31826;53.572;10.170;2022-07-24T09:26:52;23.70;93.40
46091;DHT22;31826;53.572;10.170;2022-07-24T09:29:20;23.60;93.70
46091;DHT22;31826;53.572;10.170;2022-07-24T09:31:55;23.50;94.10
46091;DHT22;31826;53.572;10.170;2022-07-24T09:34:27;23.70;93.80
46091;DHT22;31826;53.572;10.170;2022-07-24T09:37:03;24.00;92.70
46091;DHT22;31826;53.572;10.170;2022-07-24T09:39:32;24.20;92.60
46091;DHT22;31826;53.572;10.170;2022-07-24T09:42:00;24.40;92.30
46091;DHT22;31826;53.572;10.170;2022-07-24T09:44:26;24.40;92.00
46091;DHT22;31826;53.572;10.170;2022-07-24T09:49:22;24.90;91.60
46091;DHT22;31826;53.572;10.170;2022-07-24T09:52:13;24.60;90.30
46091;DHT22;31826;53.572;10.170;2022-07-24T09:54:45;24.60;92.00
46091;DHT22;31826;53.572;10.170;2022-07-24T09:57:29;24.70;91.10
46091;DHT22;31826;53.572;10.170;2022-07-24T10:00:04;24.60;91.20
46091;DHT22;31826;53.572;10.170;2022-07-24T10:02:33;24.90;90.90
46091;DHT22;31826;53.572;10.170;2022-07-24T10:05:01;24.90;91.70
46091;DHT22;31826;53.572;10.170;2022-07-24T10:07:29;25.10;90.80
46091;DHT22;31826;53.572;10.170;2022-07-24T10:09:59;25.40;89.50
46091;DHT22;31826;53.572;10.170;2022-07-24T10:12:28;25.60;90.10
46091;DHT22;31826;53.572;10.170;2022-07-24T10:14:56;25.80;86.70
46091;DHT22;31826;53.572;10.170;2022-07-24T10:17:53;25.90;87.90
46091;DHT22;31826;53.572;10.170;2022-07-24T10:20:21;25.80;85.10
46091;DHT22;31826;53.572;10.170;2022-07-24T10:23:24;25.60;86.40
46091;DHT22;31826;53.572;10.170;2022-07-24T10:26:07;25.40;86.30
46091;DHT22;31826;53.572;10.170;2022-07-24T10:31:11;25.70;86.50
46091;DHT22;31826;53.572;10.170;2022-07-24T10:33:40;25.80;85.40
46091;DHT22;31826;53.572;10.170;2022-07-24T10:36:37;26.00;86.00
46091;DHT22;31826;53.572;10.170;2022-07-24T10:39:13;26.40;86.60
46091;DHT22;31826;53.572;10.170;2022-07-24T10:41:39;26.60;85.80
46091;DHT22;31826;53.572;10.170;2022-07-24T10:47:01;26.20;82.50
46091;DHT22;31826;53.572;10.170;2022-07-24T10:49:42;26.40;82.90
46091;DHT22;31826;53.572;10.170;2022-07-24T10:52:29;26.30;81.50
46091;DHT22;31826;53.572;10.170;2022-07-24T10:55:22;26.70;81.20
46091;DHT22;31826;53.572;10.170;2022-07-24T10:58:02;27.00;82.00
46091;DHT22;31826;53.572;10.170;2022-07-24T11:00:36;27.20;80.10
46091;DHT22;31826;53.572;10.170;2022-07-24T11:03:05;27.50;79.20
46091;DHT22;31826;53.572;10.170;2022-07-24T11:05:36;28.10;78.50
46091;DHT22;31826;53.572;10.170;2022-07-24T11:10:54;28.50;76.80
46091;DHT22;31826;53.572;10.170;2022-07-24T11:21:39;29.10;72.30
46091;DHT22;31826;53.572;10.170;2022-07-24T11:24:32;29.10;71.80
46091;DHT22;31826;53.572;10.170;2022-07-24T11:27:04;28.60;72.00
46091;DHT22;31826;53.572;10.170;2022-07-24T11:29:40;28.60;73.30
46091;DHT22;31826;53.572;10.170;2022-07-24T11:32:10;28.50;70.40
46091;DHT22;31826;53.572;10.170;2022-07-24T11:34:43;28.40;73.10
46091;DHT22;31826;53.572;10.170;2022-07-24T11:37:09;28.70;72.50
46091;DHT22;31826;53.572;10.170;2022-07-24T11:39:38;28.60;71.10
46091;DHT22;31826;53.572;10.170;2022-07-24T11:42:07;28.40;72.40
46091;DHT22;31826;53.572;10.170;2022-07-24T11:44:49;28.30;72.80
46091;DHT22;31826;53.572;10.170;2022-07-24T11:47:23;28.40;74.00
46091;DHT22;31826;53.572;10.170;2022-07-24T11:50:05;28.20;73.80
46091;DHT22;31826;53.572;10.170;2022-07-24T11:52:37;28.30;72.10
46091;DHT22;31826;53.572;10.170;2022-07-24T11:55:23;28.20;74.00
46091;DHT22;31826;53.572;10.170;2022-07-24T11:57:55;28.30;72.40
46091;DHT22;31826;53.572;10.170;2022-07-24T12:00:26;28.80;71.00
46091;DHT22;31826;53.572;10.170;2022-07-24T12:02:57;29.10;73.00
46091;DHT22;31826;53.572;10.170;2022-07-24T12:05:32;29.00;71.90
46091;DHT22;31826;53.572;10.170;2022-07-24T12:07:59;29.10;71.60
46091;DHT22;31826;53.572;10.170;2022-07-24T12:10:26;29.20;72.00
46091;DHT22;31826;53.572;10.170;2022-07-24T12:12:53;29.20;69.50
46091;DHT22;31826;53.572;10.170;2022-07-24T12:15:20;29.20;71.80
46091;DHT22;31826;53.572;10.170;2022-07-24T12:17:59;29.30;72.70
46091;DHT22;31826;53.572;10.170;2022-07-24T12:20:29;29.70;68.90
46091;DHT22;31826;53.572;10.170;2022-07-24T12:22:55;29.60;67.60
46091;DHT22;31826;53.572;10.170;2022-07-24T12:25:22;29.50;67.70
46091;DHT22;31826;53.572;10.170;2022-07-24T12:27:48;29.40;67.50
46091;DHT22;31826;53.572;10.170;2022-07-24T12:33:08;29.50;69.20
46091;DHT22;31826;53.572;10.170;2022-07-24T12:38:24;29.70;69.60
46091;DHT22;31826;53.572;10.170;2022-07-24T12:40:50;30.10;68.70
46091;DHT22;31826;53.572;10.170;2022-07-24T12:43:16;30.20;67.00
46091;DHT22;31826;53.572;10.170;2022-07-24T12:45:42;30.00;66.30
46091;DHT22;31826;53.572;10.170;2022-07-24T12:48:21;30.00;67.80
46091;DHT22;31826;53.572;10.170;2022-07-24T12:51:08;29.90;67.90
46091;DHT22;31826;53.572;10.170;2022-07-24T12:53:39;29.70;65.10
46091;DHT22;31826;53.572;10.170;2022-07-24T12:56:13;29.60;65.30
46091;DHT22;31826;53.572;10.170;2022-07-24T13:01:18;29.40;65.40
46091;DHT22;31826;53.572;10.170;2022-07-24T13:04:01;29.60;66.30
46091;DHT22;31826;53.572;10.170;2022-07-24T13:06:44;29.20;66.50
46091;DHT22;31826;53.572;10.170;2022-07-24T13:09:14;29.20;66.50
46091;DHT22;31826;53.572;10.170;2022-07-24T13:11:41;29.40;65.30
46091;DHT22;31826;53.572;10.170;2022-07-24T13:14:09;29.40;66.30
46091;DHT22;31826;53.572;10.170;2022-07-24T13:16:38;29.40;65.60
46091;DHT22;31826;53.572;10.170;2022-07-24T13:19:05;29.30;66.00
46091;DHT22;31826;53.572;10.170;2022-07-24T13:21:31;29.00;66.90
46091;DHT22;31826;53.572;10.170;2022-07-24T13:23:58;29.40;68.00
46091;DHT22;31826;53.572;10.170;2022-07-24T13:26:23;29.70;67.80
46091;DHT22;31826;53.572;10.170;2022-07-24T13:28:49;29.50;66.20
46091;DHT22;31826;53.572;10.170;2022-07-24T13:31:16;29.60;66.70
46091;DHT22;31826;53.572;10.170;2022-07-24T13:33:45;29.30;67.00
46091;DHT22;31826;53.572;10.170;2022-07-24T13:36:12;29.60;67.70
46091;DHT22;31826;53.572;10.170;2022-07-24T13:38:37;30.10;65.40
46091;DHT22;31826;53.572;10.170;2022-07-24T13:41:03;30.10;64.00
46091;DHT22;31826;53.572;10.170;2022-07-24T13:43:29;30.00;64.00
46091;DHT22;31826;53.572;10.170;2022-07-24T13:45:55;29.70;64.30
46091;DHT22;31826;53.572;10.170;2022-07-24T13:48:20;29.80;64.50
46091;DHT22;31826;53.572;10.170;2022-07-24T13:50:46;29.50;64.70
46091;DHT22;31826;53.572;10.170;2022-07-24T13:53:12;29.20;64.70
46091;DHT22;31826;53.572;10.170;2022-07-24T13:55:37;29.40;64.90
46091;DHT22;31826;53.572;10.170;2022-07-24T13:58:03;29.90;64.50
46091;DHT22;31826;53.572;10.170;2022-07-24T14:00:29;30.40;63.60
46091;DHT22;31826;53.572;10.170;2022-07-24T14:02:55;30.60;64.10
46091;DHT22;31826;53.572;10.170;2022-07-24T14:05:24;30.90;61.80
46091;DHT22;31826;53.572;10.170;2022-07-24T14:07:51;31.20;61.40
46091;DHT22;31826;53.572;10.170;2022-07-24T14:10:18;31.40;60.60
46091;DHT22;31826;53.572;10.170;2022-07-24T14:12:44;31.20;61.20
46091;DHT22;31826;53.572;10.170;2022-07-24T14:15:11;30.90;61.10
46091;DHT22;31826;53.572;10.170;2022-07-24T14:17:40;30.80;63.40
46091;DHT22;31826;53.572;10.170;2022-07-24T14:20:08;30.60;59.60
46091;DHT22;31826;53.572;10.170;2022-07-24T14:22:34;30.70;63.50
46091;DHT22;31826;53.572;10.170;2022-07-24T14:25:01;30.50;61.40
46091;DHT22;31826;53.572;10.170;2022-07-24T14:27:27;30.80;61.30
46091;DHT22;31826;53.572;10.170;2022-07-24T14:29:53;30.50;61.20
46091;DHT22;31826;53.572;10.170;2022-07-24T14:32:19;30.50;61.00
46091;DHT22;31826;53.572;10.170;2022-07-24T14:34:45;30.60;61.60
46091;DHT22;31826;53.572;10.170;2022-07-24T14:37:11;30.70;60.80
46091;DHT22;31826;53.572;10.170;2022-07-24T14:39:36;30.80;60.00
46091;DHT22;31826;53.572;10.170;2022-07-24T14:42:02;30.60;59.60
46091;DHT22;31826;53.572;10.170;2022-07-24T14:44:28;30.60;59.90
46091;DHT22;31826;53.572;10.170;2022-07-24T14:46:54;30.70;60.30
46091;DHT22;31826;53.572;10.170;2022-07-24T14:49:20;30.90;60.50
46091;DHT22;31826;53.572;10.170;2022-07-24T14:51:45;30.80;60.00
46091;DHT22;31826;53.572;10.170;2022-07-24T14:54:11;30.70;59.70
46091;DHT22;31826;53.572;10.170;2022-07-24T14:56:37;30.80;61.00
46091;DHT22;31826;53.572;10.170;2022-07-24T14:59:04;31.10;59.80
46091;DHT22;31826;53.572;10.170;2022-07-24T15:01:29;31.10;58.70
46091;DHT22;31826;53.572;10.170;2022-07-24T15:03:55;30.60;59.90
46091;DHT22;31826;53.572;10.170;2022-07-24T15:06:21;30.60;59.80
46091;DHT22;31826;53.572;10.170;2022-07-24T15:08:47;30.60;59.80
46091;DHT22;31826;53.572;10.170;2022-07-24T15:11:13;30.60;60.20
46091;DHT22;31826;53.572;10.170;2022-07-24T15:13:39;30.70;60.40
46091;DHT22;31826;53.572;10.170;2022-07-24T15:16:08;30.70;60.00
46091;DHT22;31826;53.572;10.170;2022-07-24T15:18:34;30.60;59.10
46091;DHT22;31826;53.572;10.170;2022-07-24T15:21:00;30.40;60.20
46091;DHT22;31826;53.572;10.170;2022-07-24T15:23:26;30.20;60.20
46091;DHT22;31826;53.572;10.170;2022-07-24T15:25:52;30.00;61.30
46091;DHT22;31826;53.572;10.170;2022-07-24T15:28:19;29.60;61.80
46091;DHT22;31826;53.572;10.170;2022-07-24T15:30:45;29.50;61.50
46091;DHT22;31826;53.572;10.170;2022-07-24T15:33:11;29.40;61.10
46091;DHT22;31826;53.572;10.170;2022-07-24T15:35:37;29.30;61.60
46091;DHT22;31826;53.572;10.170;2022-07-24T15:38:02;29.30;62.40
46091;DHT22;31826;53.572;10.170;2022-07-24T15:40:28;29.30;62.00
46091;DHT22;31826;53.572;10.170;2022-07-24T15:42:57;29.00;62.90
46091;DHT22;31826;53.572;10.170;2022-07-24T15:45:23;28.90;63.20
46091;DHT22;31826;53.572;10.170;2022-07-24T15:47:49;29.10;62.90